Alto, MI (49302)

12:33 PM EST on February 07, 2016 (GMT -0500)
Fairbanks Estates | | Change Station
CLOSE
Current Station
Personal Weather Station
Location: Caledonia, MI
Elevation: 810 ft
Nearby Weather Stations

Elev 810 ft 42.83 °N, 85.47 °W | Updated 9 minutes ago

Mostly Cloudy
Mostly Cloudy
43.3 °F
Feels Like 43 °F
N
2.2
Wind Variable Wind from West

Today
High -- | Low -- °F
--% Chance of Precip.
Yesterday
High -- | Low -- °F
Precip. -- in
Pressure 29.80 in
Visibility 10.0 miles
Clouds Mostly Cloudy 10000 ft
Mostly Cloudy 11000 ft
Overcast 23000 ft
Windchill 43 °F
Dew Point 32 °F
Humidity 65%
Rainfall 0.00 in
Snow Depth Not available.
7:50 AM 6:02 PM
Waning Crescent, 1% visible
METAR KGRR 071653Z 21009KT 10SM BKN100 BKN110 OVC230 06/M01 A2978 RMK AO2 SLP091 T00561011
Pressure 29.80 in
Visibility 10.0 miles
Clouds Mostly Cloudy 10000 ft
Mostly Cloudy 11000 ft
Overcast 23000 ft
Windchill 43 °F
Dew Point 32 °F
Humidity 65%
Rainfall 0.00 in
Snow Depth Not available.
7:50 AM 6:02 PM
Waning Crescent, 1% visible
METAR KGRR 071653Z 21009KT 10SM BKN100 BKN110 OVC230 06/M01 A2978 RMK AO2 SLP091 T00561011

10-Day Weather Forecast

Almanac

Astronomy

Feb. 07, 2016 Rise Set
Actual Time
Civil Twilight
Nautical Twilight
Astronomical Twilight
Moon
Length of Visible Light
Length of Day
Tomorrow will be .
, % of the Moon is Illuminated

Today's Extremes

State Highs State Lows

Community

WunderPhotos

Upload Photos

1,891,244 photos uploaded!

WunderBlog® & News

Nearby

Air Quality

  Air Quality AQ Index Pollutant
Not available.

Snow Depth

Station Depth Elevation

Earthquake Activity

City Distance Mag. Time & Date
Minimum magnitude displayed is 2.5.

Coastal Water Temperatures

Place Temperature

Stations

Nearby Weather Stations

Station Location Temp. Windchill Dew Point Humidity Wind Precip. Elev Updated Type
                   

Watches & Warnings

There are currently no watches in effect.